sensor_id;sensor_type;location;lat;lon;timestamp;temperature;humidity
31809;DHT22;18379;48.208;-1.518;2023-04-10T00:01:33;12.70;99.90
31809;DHT22;18379;48.208;-1.518;2023-04-10T00:06:35;12.70;99.90
31809;DHT22;18379;48.208;-1.518;2023-04-10T00:11:36;12.80;99.90
31809;DHT22;18379;48.208;-1.518;2023-04-10T00:16:37;12.80;99.90
31809;DHT22;18379;48.208;-1.518;2023-04-10T00:21:37;12.80;99.90
31809;DHT22;18379;48.208;-1.518;2023-04-10T00:26:39;12.90;99.90
31809;DHT22;18379;48.208;-1.518;2023-04-10T00:31:40;12.90;99.90
31809;DHT22;18379;48.208;-1.518;2023-04-10T00:36:41;12.90;99.90
31809;DHT22;18379;48.208;-1.518;2023-04-10T00:41:42;12.90;99.90
31809;DHT22;18379;48.208;-1.518;2023-04-10T00:46:43;12.90;99.90
31809;DHT22;18379;48.208;-1.518;2023-04-10T00:51:44;12.90;99.90
31809;DHT22;18379;48.208;-1.518;2023-04-10T00:56:45;12.90;99.90
31809;DHT22;18379;48.208;-1.518;2023-04-10T01:01:46;12.90;99.90
31809;DHT22;18379;48.208;-1.518;2023-04-10T01:07:08;12.90;99.90
31809;DHT22;18379;48.208;-1.518;2023-04-10T01:18:15;12.80;99.90
31809;DHT22;18379;48.208;-1.518;2023-04-10T01:29:03;12.70;99.90
31809;DHT22;18379;48.208;-1.518;2023-04-10T01:34:14;12.70;99.90
31809;DHT22;18379;48.208;-1.518;2023-04-10T01:39:20;12.50;99.90
31809;DHT22;18379;48.208;-1.518;2023-04-10T01:44:28;12.50;99.90
31809;DHT22;18379;48.208;-1.518;2023-04-10T01:49:30;12.40;99.90
31809;DHT22;18379;48.208;-1.518;2023-04-10T01:54:33;12.40;99.90
31809;DHT22;18379;48.208;-1.518;2023-04-10T01:59:37;12.40;99.90
31809;DHT22;18379;48.208;-1.518;2023-04-10T02:04:38;12.40;99.90
31809;DHT22;18379;48.208;-1.518;2023-04-10T02:14:53;12.40;99.90
31809;DHT22;18379;48.208;-1.518;2023-04-10T02:19:56;12.40;99.90
31809;DHT22;18379;48.208;-1.518;2023-04-10T02:24:57;12.30;99.90
31809;DHT22;18379;48.208;-1.518;2023-04-10T02:29:59;12.30;99.90
31809;DHT22;18379;48.208;-1.518;2023-04-10T02:35:00;12.30;99.90
31809;DHT22;18379;48.208;-1.518;2023-04-10T02:40:02;12.30;99.90
31809;DHT22;18379;48.208;-1.518;2023-04-10T02:45:03;12.30;99.90
31809;DHT22;18379;48.208;-1.518;2023-04-10T02:50:05;12.30;99.90
31809;DHT22;18379;48.208;-1.518;2023-04-10T02:55:06;12.40;99.90
31809;DHT22;18379;48.208;-1.518;2023-04-10T03:00:07;12.30;99.90
31809;DHT22;18379;48.208;-1.518;2023-04-10T03:05:08;12.40;99.90
31809;DHT22;18379;48.208;-1.518;2023-04-10T03:10:09;12.30;99.90
31809;DHT22;18379;48.208;-1.518;2023-04-10T03:15:10;12.30;99.90
31809;DHT22;18379;48.208;-1.518;2023-04-10T03:20:12;12.30;99.90
31809;DHT22;18379;48.208;-1.518;2023-04-10T03:25:13;12.30;99.90
31809;DHT22;18379;48.208;-1.518;2023-04-10T03:30:13;12.30;99.90
31809;DHT22;18379;48.208;-1.518;2023-04-10T03:35:14;12.40;99.90
31809;DHT22;18379;48.208;-1.518;2023-04-10T03:40:15;12.40;99.90
31809;DHT22;18379;48.208;-1.518;2023-04-10T03:45:16;12.40;99.90
31809;DHT22;18379;48.208;-1.518;2023-04-10T03:50:17;12.40;99.90
31809;DHT22;18379;48.208;-1.518;2023-04-10T03:55:18;12.40;99.90
31809;DHT22;18379;48.208;-1.518;2023-04-10T04:00:19;12.40;99.90
31809;DHT22;18379;48.208;-1.518;2023-04-10T04:05:20;12.40;99.90
31809;DHT22;18379;48.208;-1.518;2023-04-10T04:10:21;12.30;99.90
31809;DHT22;18379;48.208;-1.518;2023-04-10T04:15:23;12.30;99.90
31809;DHT22;18379;48.208;-1.518;2023-04-10T04:20:24;12.30;99.90
31809;DHT22;18379;48.208;-1.518;2023-04-10T04:25:25;12.40;99.90
31809;DHT22;18379;48.208;-1.518;2023-04-10T04:30:26;12.40;99.90
31809;DHT22;18379;48.208;-1.518;2023-04-10T04:35:27;12.50;99.90
31809;DHT22;18379;48.208;-1.518;2023-04-10T04:40:28;12.50;99.90
31809;DHT22;18379;48.208;-1.518;2023-04-10T04:45:29;12.50;99.90
31809;DHT22;18379;48.208;-1.518;2023-04-10T04:50:30;12.50;99.90
31809;DHT22;18379;48.208;-1.518;2023-04-10T04:55:31;12.40;99.90
31809;DHT22;18379;48.208;-1.518;2023-04-10T05:00:31;12.50;99.90
31809;DHT22;18379;48.208;-1.518;2023-04-10T05:05:32;12.50;99.90
31809;DHT22;18379;48.208;-1.518;2023-04-10T05:10:33;12.50;99.90
31809;DHT22;18379;48.208;-1.518;2023-04-10T05:15:34;12.50;99.90
31809;DHT22;18379;48.208;-1.518;2023-04-10T05:20:34;12.50;99.90
31809;DHT22;18379;48.208;-1.518;2023-04-10T05:25:35;12.50;99.90
31809;DHT22;18379;48.208;-1.518;2023-04-10T05:30:36;12.50;99.90
31809;DHT22;18379;48.208;-1.518;2023-04-10T05:35:37;12.40;99.90
31809;DHT22;18379;48.208;-1.518;2023-04-10T05:40:38;12.40;99.90
31809;DHT22;18379;48.208;-1.518;2023-04-10T05:45:38;12.30;99.90
31809;DHT22;18379;48.208;-1.518;2023-04-10T05:50:40;12.30;99.90
31809;DHT22;18379;48.208;-1.518;2023-04-10T05:55:40;12.40;99.90
31809;DHT22;18379;48.208;-1.518;2023-04-10T06:00:41;12.40;99.90
31809;DHT22;18379;48.208;-1.518;2023-04-10T06:05:42;12.50;99.90
31809;DHT22;18379;48.208;-1.518;2023-04-10T06:10:43;12.60;99.90
31809;DHT22;18379;48.208;-1.518;2023-04-10T06:15:43;12.60;99.90
31809;DHT22;18379;48.208;-1.518;2023-04-10T06:20:44;12.60;99.90
31809;DHT22;18379;48.208;-1.518;2023-04-10T06:25:45;12.60;99.90
31809;DHT22;18379;48.208;-1.518;2023-04-10T06:30:46;12.70;99.90
31809;DHT22;18379;48.208;-1.518;2023-04-10T06:35:47;12.70;99.90
31809;DHT22;18379;48.208;-1.518;2023-04-10T06:40:48;12.70;99.90
31809;DHT22;18379;48.208;-1.518;2023-04-10T06:45:49;12.80;99.90
31809;DHT22;18379;48.208;-1.518;2023-04-10T06:50:50;12.90;99.90
31809;DHT22;18379;48.208;-1.518;2023-04-10T06:55:51;12.90;99.90
31809;DHT22;18379;48.208;-1.518;2023-04-10T07:00:51;12.90;99.90
31809;DHT22;18379;48.208;-1.518;2023-04-10T07:05:52;12.90;99.90
31809;DHT22;18379;48.208;-1.518;2023-04-10T07:10:53;12.80;99.90
31809;DHT22;18379;48.208;-1.518;2023-04-10T07:15:53;12.80;99.90
31809;DHT22;18379;48.208;-1.518;2023-04-10T07:20:54;12.80;99.90
31809;DHT22;18379;48.208;-1.518;2023-04-10T07:25:55;12.80;99.90
31809;DHT22;18379;48.208;-1.518;2023-04-10T07:30:57;12.80;99.90
31809;DHT22;18379;48.208;-1.518;2023-04-10T07:35:58;12.90;99.90
31809;DHT22;18379;48.208;-1.518;2023-04-10T07:40:59;12.90;99.90
31809;DHT22;18379;48.208;-1.518;2023-04-10T07:46:00;12.90;99.90
31809;DHT22;18379;48.208;-1.518;2023-04-10T07:51:01;13.10;99.90
31809;DHT22;18379;48.208;-1.518;2023-04-10T07:56:02;13.20;99.90
31809;DHT22;18379;48.208;-1.518;2023-04-10T08:01:03;13.30;99.90
31809;DHT22;18379;48.208;-1.518;2023-04-10T08:06:04;13.20;99.90
31809;DHT22;18379;48.208;-1.518;2023-04-10T08:11:20;13.30;99.90
31809;DHT22;18379;48.208;-1.518;2023-04-10T08:16:27;13.30;99.90
31809;DHT22;18379;48.208;-1.518;2023-04-10T08:21:29;13.30;99.90
31809;DHT22;18379;48.208;-1.518;2023-04-10T08:26:31;13.30;99.90
31809;DHT22;18379;48.208;-1.518;2023-04-10T08:31:32;13.30;99.90
31809;DHT22;18379;48.208;-1.518;2023-04-10T08:36:33;13.30;99.90
31809;DHT22;18379;48.208;-1.518;2023-04-10T08:41:34;13.40;99.90
31809;DHT22;18379;48.208;-1.518;2023-04-10T08:46:35;13.50;99.90
31809;DHT22;18379;48.208;-1.518;2023-04-10T08:51:52;13.60;99.90
31809;DHT22;18379;48.208;-1.518;2023-04-10T08:56:55;13.70;99.90
31809;DHT22;18379;48.208;-1.518;2023-04-10T09:01:57;13.90;99.90
31809;DHT22;18379;48.208;-1.518;2023-04-10T09:06:58;13.80;99.90
31809;DHT22;18379;48.208;-1.518;2023-04-10T09:12:01;13.90;99.90
31809;DHT22;18379;48.208;-1.518;2023-04-10T09:17:20;14.00;99.90
31809;DHT22;18379;48.208;-1.518;2023-04-10T09:22:33;14.10;99.90
31809;DHT22;18379;48.208;-1.518;2023-04-10T09:27:35;14.10;99.90
31809;DHT22;18379;48.208;-1.518;2023-04-10T09:32:43;14.10;99.90
31809;DHT22;18379;48.208;-1.518;2023-04-10T09:37:45;14.10;99.90
31809;DHT22;18379;48.208;-1.518;2023-04-10T09:42:46;14.20;99.90
31809;DHT22;18379;48.208;-1.518;2023-04-10T09:48:06;14.30;99.90
31809;DHT22;18379;48.208;-1.518;2023-04-10T09:53:12;14.50;99.90
31809;DHT22;18379;48.208;-1.518;2023-04-10T09:58:14;14.40;99.90
31809;DHT22;18379;48.208;-1.518;2023-04-10T10:03:18;14.50;99.90
31809;DHT22;18379;48.208;-1.518;2023-04-10T10:08:22;14.60;99.90
31809;DHT22;18379;48.208;-1.518;2023-04-10T10:13:32;14.80;99.90
31809;DHT22;18379;48.208;-1.518;2023-04-10T10:18:44;14.70;99.90
31809;DHT22;18379;48.208;-1.518;2023-04-10T10:23:47;14.80;99.90
31809;DHT22;18379;48.208;-1.518;2023-04-10T10:28:55;14.70;99.90
31809;DHT22;18379;48.208;-1.518;2023-04-10T10:33:56;14.70;99.90
31809;DHT22;18379;48.208;-1.518;2023-04-10T10:39:28;14.70;99.90
31809;DHT22;18379;48.208;-1.518;2023-04-10T10:44:43;14.80;99.90
31809;DHT22;18379;48.208;-1.518;2023-04-10T10:50:04;14.80;99.90
31809;DHT22;18379;48.208;-1.518;2023-04-10T11:00:26;14.80;99.90
31809;DHT22;18379;48.208;-1.518;2023-04-10T11:05:54;14.80;99.90
31809;DHT22;18379;48.208;-1.518;2023-04-10T11:11:07;14.80;99.90
31809;DHT22;18379;48.208;-1.518;2023-04-10T11:16:09;14.70;99.90
31809;DHT22;18379;48.208;-1.518;2023-04-10T11:21:11;14.80;99.90
31809;DHT22;18379;48.208;-1.518;2023-04-10T11:26:12;14.80;99.90
31809;DHT22;18379;48.208;-1.518;2023-04-10T11:31:22;14.90;99.90
31809;DHT22;18379;48.208;-1.518;2023-04-10T11:36:24;14.90;99.90
31809;DHT22;18379;48.208;-1.518;2023-04-10T11:41:36;14.90;99.90
31809;DHT22;18379;48.208;-1.518;2023-04-10T11:46:38;14.70;99.90
31809;DHT22;18379;48.208;-1.518;2023-04-10T11:51:39;14.60;99.90
31809;DHT22;18379;48.208;-1.518;2023-04-10T11:57:04;14.70;99.90
31809;DHT22;18379;48.208;-1.518;2023-04-10T12:02:12;15.50;99.90
31809;DHT22;18379;48.208;-1.518;2023-04-10T12:07:16;15.90;99.90
31809;DHT22;18379;48.208;-1.518;2023-04-10T12:12:17;15.90;99.90
31809;DHT22;18379;48.208;-1.518;2023-04-10T12:17:20;15.90;99.90
31809;DHT22;18379;48.208;-1.518;2023-04-10T12:22:24;15.80;99.90
31809;DHT22;18379;48.208;-1.518;2023-04-10T12:27:26;15.60;99.90
31809;DHT22;18379;48.208;-1.518;2023-04-10T12:32:27;15.80;99.90
31809;DHT22;18379;48.208;-1.518;2023-04-10T12:42:47;15.50;99.90
31809;DHT22;18379;48.208;-1.518;2023-04-10T12:47:49;15.50;99.90
31809;DHT22;18379;48.208;-1.518;2023-04-10T12:53:03;15.80;99.90
31809;DHT22;18379;48.208;-1.518;2023-04-10T12:58:18;16.00;99.90
31809;DHT22;18379;48.208;-1.518;2023-04-10T13:03:22;15.70;99.90
31809;DHT22;18379;48.208;-1.518;2023-04-10T13:08:26;15.80;99.90
31809;DHT22;18379;48.208;-1.518;2023-04-10T13:13:26;15.80;99.90
31809;DHT22;18379;48.208;-1.518;2023-04-10T13:18:27;15.70;99.90
31809;DHT22;18379;48.208;-1.518;2023-04-10T13:23:30;15.90;99.90
31809;DHT22;18379;48.208;-1.518;2023-04-10T13:28:31;16.00;99.90
31809;DHT22;18379;48.208;-1.518;2023-04-10T13:33:32;16.60;99.90
31809;DHT22;18379;48.208;-1.518;2023-04-10T13:38:33;17.00;99.90
31809;DHT22;18379;48.208;-1.518;2023-04-10T13:43:34;16.80;99.90
31809;DHT22;18379;48.208;-1.518;2023-04-10T13:48:35;16.60;99.90
31809;DHT22;18379;48.208;-1.518;2023-04-10T13:53:40;17.00;99.90
31809;DHT22;18379;48.208;-1.518;2023-04-10T13:58:41;17.00;99.90
31809;DHT22;18379;48.208;-1.518;2023-04-10T14:03:43;17.10;99.90
31809;DHT22;18379;48.208;-1.518;2023-04-10T14:08:44;17.30;99.90
31809;DHT22;18379;48.208;-1.518;2023-04-10T14:13:45;17.30;99.90
31809;DHT22;18379;48.208;-1.518;2023-04-10T14:18:46;17.50;99.90
31809;DHT22;18379;48.208;-1.518;2023-04-10T14:23:47;17.50;99.90
31809;DHT22;18379;48.208;-1.518;2023-04-10T14:28:48;18.00;99.90
31809;DHT22;18379;48.208;-1.518;2023-04-10T14:33:50;18.20;99.90
31809;DHT22;18379;48.208;-1.518;2023-04-10T14:38:51;17.80;99.90
31809;DHT22;18379;48.208;-1.518;2023-04-10T14:43:52;17.70;99.90
31809;DHT22;18379;48.208;-1.518;2023-04-10T14:48:54;17.70;99.90
31809;DHT22;18379;48.208;-1.518;2023-04-10T14:54:10;17.30;99.90
31809;DHT22;18379;48.208;-1.518;2023-04-10T14:59:11;17.10;99.90
31809;DHT22;18379;48.208;-1.518;2023-04-10T15:04:12;16.90;99.90
31809;DHT22;18379;48.208;-1.518;2023-04-10T15:09:13;16.80;99.90
31809;DHT22;18379;48.208;-1.518;2023-04-10T15:14:14;16.60;99.90
31809;DHT22;18379;48.208;-1.518;2023-04-10T15:19:15;17.10;99.90
31809;DHT22;18379;48.208;-1.518;2023-04-10T15:24:16;17.50;99.90
31809;DHT22;18379;48.208;-1.518;2023-04-10T15:29:17;17.40;99.90
31809;DHT22;18379;48.208;-1.518;2023-04-10T15:34:17;17.30;99.90
31809;DHT22;18379;48.208;-1.518;2023-04-10T15:39:18;16.90;99.90
31809;DHT22;18379;48.208;-1.518;2023-04-10T15:44:19;16.80;99.90
31809;DHT22;18379;48.208;-1.518;2023-04-10T15:49:20;16.60;99.90
31809;DHT22;18379;48.208;-1.518;2023-04-10T15:54:20;16.60;99.90
31809;DHT22;18379;48.208;-1.518;2023-04-10T15:59:21;15.80;99.90
31809;DHT22;18379;48.208;-1.518;2023-04-10T16:04:24;14.60;99.90
31809;DHT22;18379;48.208;-1.518;2023-04-10T16:09:24;14.20;99.90
31809;DHT22;18379;48.208;-1.518;2023-04-10T16:14:25;13.90;99.90
31809;DHT22;18379;48.208;-1.518;2023-04-10T16:19:29;14.00;99.90
31809;DHT22;18379;48.208;-1.518;2023-04-10T16:24:30;14.10;99.90
31809;DHT22;18379;48.208;-1.518;2023-04-10T16:29:32;14.30;99.90
31809;DHT22;18379;48.208;-1.518;2023-04-10T16:34:33;14.50;99.90
31809;DHT22;18379;48.208;-1.518;2023-04-10T16:39:34;14.60;99.90
31809;DHT22;18379;48.208;-1.518;2023-04-10T16:44:35;14.60;99.90
31809;DHT22;18379;48.208;-1.518;2023-04-10T16:49:35;14.60;99.90
31809;DHT22;18379;48.208;-1.518;2023-04-10T16:54:37;14.40;99.90
31809;DHT22;18379;48.208;-1.518;2023-04-10T16:59:38;14.40;99.90
31809;DHT22;18379;48.208;-1.518;2023-04-10T17:04:39;14.50;99.90
31809;DHT22;18379;48.208;-1.518;2023-04-10T17:09:41;14.70;99.90
31809;DHT22;18379;48.208;-1.518;2023-04-10T17:14:43;14.70;99.90
31809;DHT22;18379;48.208;-1.518;2023-04-10T17:19:44;14.80;99.90
31809;DHT22;18379;48.208;-1.518;2023-04-10T17:24:46;14.90;99.90
31809;DHT22;18379;48.208;-1.518;2023-04-10T17:29:50;15.00;99.90
31809;DHT22;18379;48.208;-1.518;2023-04-10T17:34:54;15.00;99.90
31809;DHT22;18379;48.208;-1.518;2023-04-10T17:39:55;14.90;99.90
31809;DHT22;18379;48.208;-1.518;2023-04-10T17:44:56;14.70;99.90
31809;DHT22;18379;48.208;-1.518;2023-04-10T17:50:03;14.60;99.90
31809;DHT22;18379;48.208;-1.518;2023-04-10T17:55:06;14.40;99.90
31809;DHT22;18379;48.208;-1.518;2023-04-10T18:00:07;14.40;99.90
31809;DHT22;18379;48.208;-1.518;2023-04-10T18:05:08;14.40;99.90
31809;DHT22;18379;48.208;-1.518;2023-04-10T18:10:09;14.30;99.90
31809;DHT22;18379;48.208;-1.518;2023-04-10T18:15:10;14.20;99.90
31809;DHT22;18379;48.208;-1.518;2023-04-10T18:20:13;14.10;99.90
31809;DHT22;18379;48.208;-1.518;2023-04-10T18:25:17;14.00;99.90
31809;DHT22;18379;48.208;-1.518;2023-04-10T18:30:19;13.80;99.90
31809;DHT22;18379;48.208;-1.518;2023-04-10T18:35:20;13.50;99.90
31809;DHT22;18379;48.208;-1.518;2023-04-10T18:40:21;13.40;99.90
31809;DHT22;18379;48.208;-1.518;2023-04-10T18:45:23;13.40;99.90
31809;DHT22;18379;48.208;-1.518;2023-04-10T18:50:24;13.20;99.90
31809;DHT22;18379;48.208;-1.518;2023-04-10T18:55:25;13.10;99.90
31809;DHT22;18379;48.208;-1.518;2023-04-10T19:00:26;13.00;99.90
31809;DHT22;18379;48.208;-1.518;2023-04-10T19:05:29;12.90;99.90
31809;DHT22;18379;48.208;-1.518;2023-04-10T19:10:32;12.90;99.90
31809;DHT22;18379;48.208;-1.518;2023-04-10T19:15:40;12.70;99.90
31809;DHT22;18379;48.208;-1.518;2023-04-10T19:20:41;12.60;99.90
31809;DHT22;18379;48.208;-1.518;2023-04-10T19:25:41;12.40;99.90
31809;DHT22;18379;48.208;-1.518;2023-04-10T19:30:43;12.50;99.90
31809;DHT22;18379;48.208;-1.518;2023-04-10T19:35:43;12.40;99.90
31809;DHT22;18379;48.208;-1.518;2023-04-10T19:40:44;12.20;99.90
31809;DHT22;18379;48.208;-1.518;2023-04-10T19:45:46;12.30;99.90
31809;DHT22;18379;48.208;-1.518;2023-04-10T19:50:47;12.30;99.90
31809;DHT22;18379;48.208;-1.518;2023-04-10T19:55:48;12.10;99.90
31809;DHT22;18379;48.208;-1.518;2023-04-10T20:00:49;11.90;99.90
31809;DHT22;18379;48.208;-1.518;2023-04-10T20:05:51;11.90;99.90
31809;DHT22;18379;48.208;-1.518;2023-04-10T20:10:55;11.80;99.90
31809;DHT22;18379;48.208;-1.518;2023-04-10T20:15:58;11.70;99.90
31809;DHT22;18379;48.208;-1.518;2023-04-10T20:20:59;11.60;99.90
31809;DHT22;18379;48.208;-1.518;2023-04-10T20:26:00;11.60;99.90
31809;DHT22;18379;48.208;-1.518;2023-04-10T20:31:00;11.50;99.90
31809;DHT22;18379;48.208;-1.518;2023-04-10T20:36:01;11.40;99.90
31809;DHT22;18379;48.208;-1.518;2023-04-10T20:41:02;11.30;99.90
31809;DHT22;18379;48.208;-1.518;2023-04-10T20:46:06;11.20;99.90
31809;DHT22;18379;48.208;-1.518;2023-04-10T20:51:10;11.20;99.90
31809;DHT22;18379;48.208;-1.518;2023-04-10T20:56:11;11.10;99.90
31809;DHT22;18379;48.208;-1.518;2023-04-10T21:01:13;11.10;99.90
31809;DHT22;18379;48.208;-1.518;2023-04-10T21:06:14;11.10;99.90
31809;DHT22;18379;48.208;-1.518;2023-04-10T21:11:16;11.00;99.90
31809;DHT22;18379;48.208;-1.518;2023-04-10T21:16:19;10.90;99.90
31809;DHT22;18379;48.208;-1.518;2023-04-10T21:21:20;10.90;99.90
31809;DHT22;18379;48.208;-1.518;2023-04-10T21:26:20;10.90;99.90
31809;DHT22;18379;48.208;-1.518;2023-04-10T21:31:21;10.80;99.90
31809;DHT22;18379;48.208;-1.518;2023-04-10T21:36:22;10.80;99.90
31809;DHT22;18379;48.208;-1.518;2023-04-10T21:41:23;10.80;99.90
31809;DHT22;18379;48.208;-1.518;2023-04-10T21:46:23;11.00;99.90
31809;DHT22;18379;48.208;-1.518;2023-04-10T21:51:24;11.00;99.90
31809;DHT22;18379;48.208;-1.518;2023-04-10T21:56:26;10.90;99.90
31809;DHT22;18379;48.208;-1.518;2023-04-10T22:01:27;10.90;99.90
31809;DHT22;18379;48.208;-1.518;2023-04-10T22:06:28;10.80;99.90
31809;DHT22;18379;48.208;-1.518;2023-04-10T22:11:29;10.80;99.90
31809;DHT22;18379;48.208;-1.518;2023-04-10T22:16:30;10.80;99.90
31809;DHT22;18379;48.208;-1.518;2023-04-10T22:21:31;10.70;99.90
31809;DHT22;18379;48.208;-1.518;2023-04-10T22:26:33;10.60;99.90
31809;DHT22;18379;48.208;-1.518;2023-04-10T22:31:34;10.60;99.90
31809;DHT22;18379;48.208;-1.518;2023-04-10T22:36:35;10.60;99.90
31809;DHT22;18379;48.208;-1.518;2023-04-10T22:41:36;10.50;99.90
31809;DHT22;18379;48.208;-1.518;2023-04-10T22:46:36;10.40;99.90
31809;DHT22;18379;48.208;-1.518;2023-04-10T22:51:37;10.30;99.90
31809;DHT22;18379;48.208;-1.518;2023-04-10T22:56:38;10.30;99.90
31809;DHT22;18379;48.208;-1.518;2023-04-10T23:01:39;10.20;99.90
31809;DHT22;18379;48.208;-1.518;2023-04-10T23:06:40;10.10;99.90
31809;DHT22;18379;48.208;-1.518;2023-04-10T23:11:40;10.10;99.90
31809;DHT22;18379;48.208;-1.518;2023-04-10T23:16:44;10.00;99.90
31809;DHT22;18379;48.208;-1.518;2023-04-10T23:21:45;10.00;99.90
31809;DHT22;18379;48.208;-1.518;2023-04-10T23:26:46;10.00;99.90
31809;DHT22;18379;48.208;-1.518;2023-04-10T23:31:47;10.10;99.90
31809;DHT22;18379;48.208;-1.518;2023-04-10T23:36:48;10.00;99.90
31809;DHT22;18379;48.208;-1.518;2023-04-10T23:41:49;9.90;99.90
31809;DHT22;18379;48.208;-1.518;2023-04-10T23:46:50;9.80;99.90
31809;DHT22;18379;48.208;-1.518;2023-04-10T23:51:51;9.80;99.90
31809;DHT22;18379;48.208;-1.518;2023-04-10T23:56:51;9.70;99.90
